sensor_id;sensor_type;location;lat;lon;timestamp;P1;durP1;ratioP1;P2;durP2;ratioP2
74967;SDS011;63523;51.880;12.630;2022-11-13T00:00:13;16.27;;;6.28;;
74967;SDS011;63523;51.880;12.630;2022-11-13T00:02:49;17.73;;;7.32;;
74967;SDS011;63523;51.880;12.630;2022-11-13T00:05:22;17.88;;;7.60;;
74967;SDS011;63523;51.880;12.630;2022-11-13T00:07:53;15.05;;;6.25;;
74967;SDS011;63523;51.880;12.630;2022-11-13T00:10:27;17.37;;;6.70;;
74967;SDS011;63523;51.880;12.630;2022-11-13T00:13:03;17.85;;;6.40;;
74967;SDS011;63523;51.880;12.630;2022-11-13T00:15:37;14.68;;;6.55;;
74967;SDS011;63523;51.880;12.630;2022-11-13T00:18:26;16.85;;;6.72;;
74967;SDS011;63523;51.880;12.630;2022-11-13T00:21:16;17.33;;;6.05;;
74967;SDS011;63523;51.880;12.630;2022-11-13T00:23:55;15.80;;;6.40;;
74967;SDS011;63523;51.880;12.630;2022-11-13T00:26:27;15.68;;;5.93;;
74967;SDS011;63523;51.880;12.630;2022-11-13T00:29:07;13.95;;;5.35;;
74967;SDS011;63523;51.880;12.630;2022-11-13T00:31:43;14.68;;;5.60;;
74967;SDS011;63523;51.880;12.630;2022-11-13T00:34:15;15.02;;;6.00;;
74967;SDS011;63523;51.880;12.630;2022-11-13T00:36:46;12.87;;;5.20;;
74967;SDS011;63523;51.880;12.630;2022-11-13T00:39:30;15.10;;;6.00;;
74967;SDS011;63523;51.880;12.630;2022-11-13T00:42:12;16.83;;;6.63;;
74967;SDS011;63523;51.880;12.630;2022-11-13T00:44:49;18.27;;;7.10;;
74967;SDS011;63523;51.880;12.630;2022-11-13T00:47:22;14.20;;;6.40;;
74967;SDS011;63523;51.880;12.630;2022-11-13T00:49:53;14.70;;;6.50;;
74967;SDS011;63523;51.880;12.630;2022-11-13T00:52:22;18.55;;;7.60;;
74967;SDS011;63523;51.880;12.630;2022-11-13T00:54:53;16.65;;;6.55;;
74967;SDS011;63523;51.880;12.630;2022-11-13T00:57:29;17.00;;;7.30;;
74967;SDS011;63523;51.880;12.630;2022-11-13T01:00:01;15.40;;;5.83;;
74967;SDS011;63523;51.880;12.630;2022-11-13T01:02:37;16.80;;;6.82;;
74967;SDS011;63523;51.880;12.630;2022-11-13T01:05:08;17.50;;;6.30;;
74967;SDS011;63523;51.880;12.630;2022-11-13T01:07:36;17.73;;;6.32;;
74967;SDS011;63523;51.880;12.630;2022-11-13T01:10:16;16.85;;;6.35;;
74967;SDS011;63523;51.880;12.630;2022-11-13T01:12:49;20.93;;;7.17;;
74967;SDS011;63523;51.880;12.630;2022-11-13T01:15:22;14.85;;;6.35;;
74967;SDS011;63523;51.880;12.630;2022-11-13T01:17:55;15.07;;;5.95;;
74967;SDS011;63523;51.880;12.630;2022-11-13T01:20:26;17.45;;;6.57;;
74967;SDS011;63523;51.880;12.630;2022-11-13T01:23:00;19.00;;;6.43;;
74967;SDS011;63523;51.880;12.630;2022-11-13T01:25:33;17.00;;;6.90;;
74967;SDS011;63523;51.880;12.630;2022-11-13T01:28:07;15.88;;;6.53;;
74967;SDS011;63523;51.880;12.630;2022-11-13T01:30:37;17.77;;;7.45;;
74967;SDS011;63523;51.880;12.630;2022-11-13T01:33:05;20.23;;;7.55;;
74967;SDS011;63523;51.880;12.630;2022-11-13T01:35:43;20.17;;;7.45;;
74967;SDS011;63523;51.880;12.630;2022-11-13T01:38:14;21.33;;;7.70;;
74967;SDS011;63523;51.880;12.630;2022-11-13T01:41:08;20.08;;;7.35;;
74967;SDS011;63523;51.880;12.630;2022-11-13T01:44:00;18.85;;;7.07;;
74967;SDS011;63523;51.880;12.630;2022-11-13T01:46:55;21.55;;;8.63;;
74967;SDS011;63523;51.880;12.630;2022-11-13T01:49:38;25.60;;;8.75;;
74967;SDS011;63523;51.880;12.630;2022-11-13T01:52:25;22.93;;;8.77;;
74967;SDS011;63523;51.880;12.630;2022-11-13T01:55:05;25.15;;;9.05;;
74967;SDS011;63523;51.880;12.630;2022-11-13T01:57:42;27.20;;;9.55;;
74967;SDS011;63523;51.880;12.630;2022-11-13T02:00:39;27.15;;;10.25;;
74967;SDS011;63523;51.880;12.630;2022-11-13T02:03:25;27.25;;;9.40;;
74967;SDS011;63523;51.880;12.630;2022-11-13T02:06:03;24.03;;;8.50;;
74967;SDS011;63523;51.880;12.630;2022-11-13T02:08:35;23.05;;;8.10;;
74967;SDS011;63523;51.880;12.630;2022-11-13T02:11:04;25.98;;;9.13;;
74967;SDS011;63523;51.880;12.630;2022-11-13T02:13:38;23.10;;;9.13;;
74967;SDS011;63523;51.880;12.630;2022-11-13T02:16:10;22.02;;;8.60;;
74967;SDS011;63523;51.880;12.630;2022-11-13T02:18:45;20.23;;;7.77;;
74967;SDS011;63523;51.880;12.630;2022-11-13T02:21:31;22.10;;;8.90;;
74967;SDS011;63523;51.880;12.630;2022-11-13T02:24:27;20.88;;;8.68;;
74967;SDS011;63523;51.880;12.630;2022-11-13T02:27:10;20.08;;;7.90;;
74967;SDS011;63523;51.880;12.630;2022-11-13T02:30:20;19.73;;;8.45;;
74967;SDS011;63523;51.880;12.630;2022-11-13T02:32:56;23.80;;;8.27;;
74967;SDS011;63523;51.880;12.630;2022-11-13T02:35:36;21.52;;;8.23;;
74967;SDS011;63523;51.880;12.630;2022-11-13T02:38:10;18.58;;;7.63;;
74967;SDS011;63523;51.880;12.630;2022-11-13T02:40:46;24.05;;;8.43;;
74967;SDS011;63523;51.880;12.630;2022-11-13T02:43:27;19.73;;;7.68;;
74967;SDS011;63523;51.880;12.630;2022-11-13T02:45:59;22.30;;;8.47;;
74967;SDS011;63523;51.880;12.630;2022-11-13T02:48:35;23.02;;;8.57;;
74967;SDS011;63523;51.880;12.630;2022-11-13T02:51:14;18.58;;;7.47;;
74967;SDS011;63523;51.880;12.630;2022-11-13T02:53:51;18.80;;;7.53;;
74967;SDS011;63523;51.880;12.630;2022-11-13T02:56:22;17.33;;;6.80;;
74967;SDS011;63523;51.880;12.630;2022-11-13T02:58:54;19.70;;;8.03;;
74967;SDS011;63523;51.880;12.630;2022-11-13T03:01:23;19.13;;;7.60;;
74967;SDS011;63523;51.880;12.630;2022-11-13T03:03:49;25.05;;;9.20;;
74967;SDS011;63523;51.880;12.630;2022-11-13T03:06:25;21.90;;;7.97;;
74967;SDS011;63523;51.880;12.630;2022-11-13T03:08:57;21.13;;;7.43;;
74967;SDS011;63523;51.880;12.630;2022-11-13T03:11:33;21.77;;;8.50;;
74967;SDS011;63523;51.880;12.630;2022-11-13T03:13:59;20.27;;;8.25;;
74967;SDS011;63523;51.880;12.630;2022-11-13T03:16:27;22.50;;;8.10;;
74967;SDS011;63523;51.880;12.630;2022-11-13T03:19:01;19.17;;;7.78;;
74967;SDS011;63523;51.880;12.630;2022-11-13T03:21:27;17.77;;;6.63;;
74967;SDS011;63523;51.880;12.630;2022-11-13T03:24:18;18.80;;;7.35;;
74967;SDS011;63523;51.880;12.630;2022-11-13T03:26:52;18.10;;;8.10;;
74967;SDS011;63523;51.880;12.630;2022-11-13T03:29:31;20.75;;;8.18;;
74967;SDS011;63523;51.880;12.630;2022-11-13T03:32:09;20.85;;;8.38;;
74967;SDS011;63523;51.880;12.630;2022-11-13T03:34:43;20.53;;;8.43;;
74967;SDS011;63523;51.880;12.630;2022-11-13T03:37:11;19.48;;;7.70;;
74967;SDS011;63523;51.880;12.630;2022-11-13T03:39:45;16.35;;;7.25;;
74967;SDS011;63523;51.880;12.630;2022-11-13T03:42:14;19.15;;;7.47;;
74967;SDS011;63523;51.880;12.630;2022-11-13T03:44:52;17.42;;;6.85;;
74967;SDS011;63523;51.880;12.630;2022-11-13T03:47:29;15.17;;;6.37;;
74967;SDS011;63523;51.880;12.630;2022-11-13T03:50:03;18.40;;;7.15;;
74967;SDS011;63523;51.880;12.630;2022-11-13T03:52:35;17.35;;;6.45;;
74967;SDS011;63523;51.880;12.630;2022-11-13T03:55:09;15.55;;;6.15;;
74967;SDS011;63523;51.880;12.630;2022-11-13T03:57:46;15.45;;;5.95;;
74967;SDS011;63523;51.880;12.630;2022-11-13T04:00:22;20.23;;;7.27;;
74967;SDS011;63523;51.880;12.630;2022-11-13T04:02:55;16.25;;;6.53;;
74967;SDS011;63523;51.880;12.630;2022-11-13T04:05:28;16.25;;;6.47;;
74967;SDS011;63523;51.880;12.630;2022-11-13T04:08:00;16.15;;;6.78;;
74967;SDS011;63523;51.880;12.630;2022-11-13T04:10:32;15.27;;;6.22;;
74967;SDS011;63523;51.880;12.630;2022-11-13T04:13:08;13.53;;;6.30;;
74967;SDS011;63523;51.880;12.630;2022-11-13T04:15:41;15.18;;;6.43;;
74967;SDS011;63523;51.880;12.630;2022-11-13T04:18:23;14.73;;;5.97;;
74967;SDS011;63523;51.880;12.630;2022-11-13T04:21:02;17.80;;;6.03;;
74967;SDS011;63523;51.880;12.630;2022-11-13T04:23:42;14.25;;;5.63;;
74967;SDS011;63523;51.880;12.630;2022-11-13T04:26:16;14.90;;;5.80;;
74967;SDS011;63523;51.880;12.630;2022-11-13T04:28:47;12.82;;;5.30;;
74967;SDS011;63523;51.880;12.630;2022-11-13T04:31:21;12.65;;;5.10;;
74967;SDS011;63523;51.880;12.630;2022-11-13T04:33:52;12.98;;;5.07;;
74967;SDS011;63523;51.880;12.630;2022-11-13T04:36:26;11.70;;;4.90;;
74967;SDS011;63523;51.880;12.630;2022-11-13T04:38:56;14.13;;;5.17;;
74967;SDS011;63523;51.880;12.630;2022-11-13T04:41:42;12.73;;;5.13;;
74967;SDS011;63523;51.880;12.630;2022-11-13T04:44:29;13.25;;;5.05;;
74967;SDS011;63523;51.880;12.630;2022-11-13T04:47:03;14.50;;;5.57;;
74967;SDS011;63523;51.880;12.630;2022-11-13T04:49:32;12.60;;;4.68;;
74967;SDS011;63523;51.880;12.630;2022-11-13T04:52:06;12.67;;;5.10;;
74967;SDS011;63523;51.880;12.630;2022-11-13T04:54:36;12.50;;;4.90;;
74967;SDS011;63523;51.880;12.630;2022-11-13T04:57:08;12.07;;;4.50;;
74967;SDS011;63523;51.880;12.630;2022-11-13T04:59:39;10.93;;;4.70;;
74967;SDS011;63523;51.880;12.630;2022-11-13T05:02:11;8.75;;;3.65;;
74967;SDS011;63523;51.880;12.630;2022-11-13T05:04:42;8.93;;;3.67;;
74967;SDS011;63523;51.880;12.630;2022-11-13T05:07:11;8.13;;;3.72;;
74967;SDS011;63523;51.880;12.630;2022-11-13T05:09:48;7.15;;;3.33;;
74967;SDS011;63523;51.880;12.630;2022-11-13T05:12:23;8.43;;;3.40;;
74967;SDS011;63523;51.880;12.630;2022-11-13T05:14:57;8.68;;;3.85;;
74967;SDS011;63523;51.880;12.630;2022-11-13T05:17:36;8.97;;;3.80;;
74967;SDS011;63523;51.880;12.630;2022-11-13T05:20:12;7.75;;;3.47;;
74967;SDS011;63523;51.880;12.630;2022-11-13T05:22:50;8.13;;;3.38;;
74967;SDS011;63523;51.880;12.630;2022-11-13T05:25:27;11.75;;;4.07;;
74967;SDS011;63523;51.880;12.630;2022-11-13T05:27:59;6.15;;;2.63;;
74967;SDS011;63523;51.880;12.630;2022-11-13T05:33:00;8.32;;;3.42;;
74967;SDS011;63523;51.880;12.630;2022-11-13T05:35:40;12.27;;;5.07;;
74967;SDS011;63523;51.880;12.630;2022-11-13T05:38:13;14.48;;;5.22;;
74967;SDS011;63523;51.880;12.630;2022-11-13T05:40:54;15.00;;;5.75;;
74967;SDS011;63523;51.880;12.630;2022-11-13T05:43:32;17.40;;;6.73;;
74967;SDS011;63523;51.880;12.630;2022-11-13T05:46:07;15.50;;;6.18;;
74967;SDS011;63523;51.880;12.630;2022-11-13T05:48:59;16.63;;;6.85;;
74967;SDS011;63523;51.880;12.630;2022-11-13T05:51:29;16.25;;;6.65;;
74967;SDS011;63523;51.880;12.630;2022-11-13T05:54:02;20.45;;;7.32;;
74967;SDS011;63523;51.880;12.630;2022-11-13T05:56:37;19.13;;;8.07;;
74967;SDS011;63523;51.880;12.630;2022-11-13T05:59:20;18.77;;;7.60;;
74967;SDS011;63523;51.880;12.630;2022-11-13T06:01:51;16.83;;;7.40;;
74967;SDS011;63523;51.880;12.630;2022-11-13T06:04:28;19.45;;;8.25;;
74967;SDS011;63523;51.880;12.630;2022-11-13T06:06:57;16.75;;;7.18;;
74967;SDS011;63523;51.880;12.630;2022-11-13T06:09:23;17.77;;;7.80;;
74967;SDS011;63523;51.880;12.630;2022-11-13T06:11:51;19.40;;;7.72;;
74967;SDS011;63523;51.880;12.630;2022-11-13T06:14:19;17.05;;;7.55;;
74967;SDS011;63523;51.880;12.630;2022-11-13T06:16:50;15.18;;;7.05;;
74967;SDS011;63523;51.880;12.630;2022-11-13T06:19:17;13.57;;;6.33;;
74967;SDS011;63523;51.880;12.630;2022-11-13T06:21:46;14.77;;;5.97;;
74967;SDS011;63523;51.880;12.630;2022-11-13T06:24:14;16.55;;;6.97;;
74967;SDS011;63523;51.880;12.630;2022-11-13T06:26:43;13.20;;;5.90;;
74967;SDS011;63523;51.880;12.630;2022-11-13T06:29:09;17.55;;;6.88;;
74967;SDS011;63523;51.880;12.630;2022-11-13T06:31:36;11.95;;;4.93;;
74967;SDS011;63523;51.880;12.630;2022-11-13T06:34:07;12.68;;;5.70;;
74967;SDS011;63523;51.880;12.630;2022-11-13T06:36:34;10.10;;;4.40;;
74967;SDS011;63523;51.880;12.630;2022-11-13T06:39:11;8.68;;;4.00;;
74967;SDS011;63523;51.880;12.630;2022-11-13T06:41:45;9.40;;;3.85;;
74967;SDS011;63523;51.880;12.630;2022-11-13T06:44:13;10.65;;;3.90;;
74967;SDS011;63523;51.880;12.630;2022-11-13T06:47:02;8.85;;;3.50;;
74967;SDS011;63523;51.880;12.630;2022-11-13T06:49:42;9.77;;;3.50;;
74967;SDS011;63523;51.880;12.630;2022-11-13T06:52:10;8.50;;;3.42;;
74967;SDS011;63523;51.880;12.630;2022-11-13T06:54:51;9.82;;;3.38;;
74967;SDS011;63523;51.880;12.630;2022-11-13T06:57:24;9.25;;;4.10;;
74967;SDS011;63523;51.880;12.630;2022-11-13T06:59:52;9.73;;;4.10;;
74967;SDS011;63523;51.880;12.630;2022-11-13T07:02:24;8.80;;;3.57;;
74967;SDS011;63523;51.880;12.630;2022-11-13T07:05:03;11.15;;;3.88;;
74967;SDS011;63523;51.880;12.630;2022-11-13T07:07:35;8.13;;;3.50;;
74967;SDS011;63523;51.880;12.630;2022-11-13T07:10:08;11.20;;;4.82;;
74967;SDS011;63523;51.880;12.630;2022-11-13T07:12:42;12.03;;;5.27;;
74967;SDS011;63523;51.880;12.630;2022-11-13T07:15:44;24.83;;;9.50;;
74967;SDS011;63523;51.880;12.630;2022-11-13T07:18:18;26.13;;;10.32;;
74967;SDS011;63523;51.880;12.630;2022-11-13T07:21:18;33.05;;;12.02;;
74967;SDS011;63523;51.880;12.630;2022-11-13T07:23:55;43.50;;;14.38;;
74967;SDS011;63523;51.880;12.630;2022-11-13T07:26:23;46.83;;;14.93;;
74967;SDS011;63523;51.880;12.630;2022-11-13T07:28:55;45.85;;;16.10;;
74967;SDS011;63523;51.880;12.630;2022-11-13T07:31:32;40.80;;;15.95;;
74967;SDS011;63523;51.880;12.630;2022-11-13T07:34:11;37.95;;;14.23;;
74967;SDS011;63523;51.880;12.630;2022-11-13T07:39:36;39.95;;;14.93;;
74967;SDS011;63523;51.880;12.630;2022-11-13T07:42:20;37.33;;;14.80;;
74967;SDS011;63523;51.880;12.630;2022-11-13T07:44:53;36.17;;;13.85;;
74967;SDS011;63523;51.880;12.630;2022-11-13T07:47:32;34.60;;;14.18;;
74967;SDS011;63523;51.880;12.630;2022-11-13T07:50:06;33.23;;;13.47;;
74967;SDS011;63523;51.880;12.630;2022-11-13T07:52:44;34.92;;;13.82;;
74967;SDS011;63523;51.880;12.630;2022-11-13T07:55:18;34.30;;;14.00;;
74967;SDS011;63523;51.880;12.630;2022-11-13T07:57:44;33.42;;;13.65;;
74967;SDS011;63523;51.880;12.630;2022-11-13T08:00:13;32.00;;;13.50;;
74967;SDS011;63523;51.880;12.630;2022-11-13T08:02:42;32.20;;;13.35;;
74967;SDS011;63523;51.880;12.630;2022-11-13T08:05:10;33.20;;;14.55;;
74967;SDS011;63523;51.880;12.630;2022-11-13T08:07:38;31.75;;;12.98;;
74967;SDS011;63523;51.880;12.630;2022-11-13T08:10:09;32.65;;;13.75;;
74967;SDS011;63523;51.880;12.630;2022-11-13T08:12:37;30.93;;;12.93;;
74967;SDS011;63523;51.880;12.630;2022-11-13T08:15:17;30.92;;;12.73;;
74967;SDS011;63523;51.880;12.630;2022-11-13T08:17:51;29.45;;;13.32;;
74967;SDS011;63523;51.880;12.630;2022-11-13T08:20:23;28.40;;;12.40;;
74967;SDS011;63523;51.880;12.630;2022-11-13T08:22:54;30.33;;;13.43;;
74967;SDS011;63523;51.880;12.630;2022-11-13T08:25:28;29.67;;;12.50;;
74967;SDS011;63523;51.880;12.630;2022-11-13T08:28:01;27.08;;;11.75;;
74967;SDS011;63523;51.880;12.630;2022-11-13T08:30:29;31.52;;;12.52;;
74967;SDS011;63523;51.880;12.630;2022-11-13T08:32:58;28.05;;;12.38;;
74967;SDS011;63523;51.880;12.630;2022-11-13T08:35:27;25.30;;;11.23;;
74967;SDS011;63523;51.880;12.630;2022-11-13T08:38:07;27.80;;;11.53;;
74967;SDS011;63523;51.880;12.630;2022-11-13T08:40:39;27.58;;;11.90;;
74967;SDS011;63523;51.880;12.630;2022-11-13T08:43:10;24.27;;;11.10;;
74967;SDS011;63523;51.880;12.630;2022-11-13T08:45:43;25.25;;;10.95;;
74967;SDS011;63523;51.880;12.630;2022-11-13T08:48:21;23.92;;;11.40;;
74967;SDS011;63523;51.880;12.630;2022-11-13T08:50:53;25.20;;;10.40;;
74967;SDS011;63523;51.880;12.630;2022-11-13T08:53:25;26.35;;;11.00;;
74967;SDS011;63523;51.880;12.630;2022-11-13T08:55:51;26.35;;;11.60;;
74967;SDS011;63523;51.880;12.630;2022-11-13T08:58:16;25.63;;;11.20;;
74967;SDS011;63523;51.880;12.630;2022-11-13T09:00:45;26.75;;;11.85;;
74967;SDS011;63523;51.880;12.630;2022-11-13T09:03:11;23.83;;;10.88;;
74967;SDS011;63523;51.880;12.630;2022-11-13T09:05:38;24.27;;;10.65;;
74967;SDS011;63523;51.880;12.630;2022-11-13T09:08:04;25.30;;;10.70;;
74967;SDS011;63523;51.880;12.630;2022-11-13T09:10:32;24.20;;;10.18;;
74967;SDS011;63523;51.880;12.630;2022-11-13T09:13:09;22.95;;;10.30;;
74967;SDS011;63523;51.880;12.630;2022-11-13T09:15:40;24.70;;;11.15;;
74967;SDS011;63523;51.880;12.630;2022-11-13T09:18:08;25.03;;;11.23;;
74967;SDS011;63523;51.880;12.630;2022-11-13T09:20:34;24.75;;;10.85;;
74967;SDS011;63523;51.880;12.630;2022-11-13T09:23:01;22.65;;;10.07;;
74967;SDS011;63523;51.880;12.630;2022-11-13T09:25:29;25.42;;;10.60;;
74967;SDS011;63523;51.880;12.630;2022-11-13T09:28:01;25.80;;;10.37;;
74967;SDS011;63523;51.880;12.630;2022-11-13T09:30:28;23.27;;;9.40;;
74967;SDS011;63523;51.880;12.630;2022-11-13T09:32:57;22.35;;;10.38;;
74967;SDS011;63523;51.880;12.630;2022-11-13T09:35:28;24.13;;;9.95;;
74967;SDS011;63523;51.880;12.630;2022-11-13T09:40:32;22.10;;;10.20;;
74967;SDS011;63523;51.880;12.630;2022-11-13T09:43:04;21.90;;;9.43;;
74967;SDS011;63523;51.880;12.630;2022-11-13T09:45:54;23.85;;;10.05;;
74967;SDS011;63523;51.880;12.630;2022-11-13T09:51:03;22.48;;;10.00;;
74967;SDS011;63523;51.880;12.630;2022-11-13T09:53:37;21.23;;;8.83;;
74967;SDS011;63523;51.880;12.630;2022-11-13T10:04:30;22.95;;;9.98;;
74967;SDS011;63523;51.880;12.630;2022-11-13T10:07:25;22.30;;;10.30;;
74967;SDS011;63523;51.880;12.630;2022-11-13T10:10:03;20.50;;;9.50;;
74967;SDS011;63523;51.880;12.630;2022-11-13T10:12:41;23.83;;;10.00;;
74967;SDS011;63523;51.880;12.630;2022-11-13T10:15:11;23.95;;;10.52;;
74967;SDS011;63523;51.880;12.630;2022-11-13T10:17:44;21.38;;;10.02;;
74967;SDS011;63523;51.880;12.630;2022-11-13T10:20:18;23.60;;;10.27;;
74967;SDS011;63523;51.880;12.630;2022-11-13T10:22:54;24.77;;;11.27;;
74967;SDS011;63523;51.880;12.630;2022-11-13T10:25:38;24.27;;;12.13;;
74967;SDS011;63523;51.880;12.630;2022-11-13T10:28:29;27.02;;;12.25;;
74967;SDS011;63523;51.880;12.630;2022-11-13T10:31:01;28.95;;;12.50;;
74967;SDS011;63523;51.880;12.630;2022-11-13T10:33:26;27.13;;;13.33;;
74967;SDS011;63523;51.880;12.630;2022-11-13T10:41:43;29.20;;;13.25;;
74967;SDS011;63523;51.880;12.630;2022-11-13T10:44:25;30.30;;;12.97;;
74967;SDS011;63523;51.880;12.630;2022-11-13T10:49:43;28.65;;;12.60;;
74967;SDS011;63523;51.880;12.630;2022-11-13T10:52:19;27.03;;;13.03;;
74967;SDS011;63523;51.880;12.630;2022-11-13T10:54:49;29.30;;;13.17;;
74967;SDS011;63523;51.880;12.630;2022-11-13T10:57:32;28.08;;;12.88;;
74967;SDS011;63523;51.880;12.630;2022-11-13T11:00:17;30.58;;;12.65;;
74967;SDS011;63523;51.880;12.630;2022-11-13T11:02:52;24.15;;;11.80;;
74967;SDS011;63523;51.880;12.630;2022-11-13T11:05:22;27.88;;;12.88;;
74967;SDS011;63523;51.880;12.630;2022-11-13T11:07:57;27.33;;;12.47;;
74967;SDS011;63523;51.880;12.630;2022-11-13T11:13:22;31.30;;;13.75;;
74967;SDS011;63523;51.880;12.630;2022-11-13T11:15:58;28.40;;;12.73;;
74967;SDS011;63523;51.880;12.630;2022-11-13T11:18:41;26.85;;;11.88;;
74967;SDS011;63523;51.880;12.630;2022-11-13T11:21:19;26.83;;;12.43;;
74967;SDS011;63523;51.880;12.630;2022-11-13T11:23:56;25.77;;;12.30;;
74967;SDS011;63523;51.880;12.630;2022-11-13T11:26:58;26.98;;;12.57;;
74967;SDS011;63523;51.880;12.630;2022-11-13T11:32:19;27.17;;;12.13;;
74967;SDS011;63523;51.880;12.630;2022-11-13T11:35:04;25.77;;;11.87;;
74967;SDS011;63523;51.880;12.630;2022-11-13T11:37:42;29.52;;;12.70;;
74967;SDS011;63523;51.880;12.630;2022-11-13T11:40:45;23.80;;;11.50;;
74967;SDS011;63523;51.880;12.630;2022-11-13T11:43:26;27.60;;;12.10;;
74967;SDS011;63523;51.880;12.630;2022-11-13T11:46:15;26.05;;;11.50;;
74967;SDS011;63523;51.880;12.630;2022-11-13T11:48:47;25.70;;;12.23;;
74967;SDS011;63523;51.880;12.630;2022-11-13T11:51:24;24.92;;;11.82;;
74967;SDS011;63523;51.880;12.630;2022-11-13T11:56:49;25.00;;;11.38;;
74967;SDS011;63523;51.880;12.630;2022-11-13T12:13:59;24.63;;;12.05;;
74967;SDS011;63523;51.880;12.630;2022-11-13T12:22:42;23.02;;;10.30;;
74967;SDS011;63523;51.880;12.630;2022-11-13T12:25:44;26.23;;;11.77;;
74967;SDS011;63523;51.880;12.630;2022-11-13T12:28:37;21.73;;;11.45;;
74967;SDS011;63523;51.880;12.630;2022-11-13T12:33:58;26.45;;;12.07;;
74967;SDS011;63523;51.880;12.630;2022-11-13T12:36:26;26.30;;;11.98;;
74967;SDS011;63523;51.880;12.630;2022-11-13T12:41:46;23.95;;;11.32;;
74967;SDS011;63523;51.880;12.630;2022-11-13T12:44:34;25.43;;;12.00;;
74967;SDS011;63523;51.880;12.630;2022-11-13T12:47:16;21.80;;;10.55;;
74967;SDS011;63523;51.880;12.630;2022-11-13T12:50:20;22.55;;;11.07;;
74967;SDS011;63523;51.880;12.630;2022-11-13T12:53:07;22.08;;;10.60;;
74967;SDS011;63523;51.880;12.630;2022-11-13T12:55:53;23.40;;;10.45;;
74967;SDS011;63523;51.880;12.630;2022-11-13T12:58:34;22.10;;;10.60;;
74967;SDS011;63523;51.880;12.630;2022-11-13T13:01:12;22.88;;;9.90;;
74967;SDS011;63523;51.880;12.630;2022-11-13T13:07:13;22.13;;;10.43;;
74967;SDS011;63523;51.880;12.630;2022-11-13T13:15:52;18.65;;;9.02;;
74967;SDS011;63523;51.880;12.630;2022-11-13T13:21:08;19.17;;;9.50;;
74967;SDS011;63523;51.880;12.630;2022-11-13T13:23:41;20.42;;;9.10;;
74967;SDS011;63523;51.880;12.630;2022-11-13T13:26:18;21.33;;;9.47;;
74967;SDS011;63523;51.880;12.630;2022-11-13T13:28:52;20.15;;;8.82;;
74967;SDS011;63523;51.880;12.630;2022-11-13T13:40:20;19.77;;;9.07;;
74967;SDS011;63523;51.880;12.630;2022-11-13T13:46:16;18.42;;;8.65;;
74967;SDS011;63523;51.880;12.630;2022-11-13T13:48:54;18.15;;;8.50;;
74967;SDS011;63523;51.880;12.630;2022-11-13T13:51:31;18.25;;;8.35;;
74967;SDS011;63523;51.880;12.630;2022-11-13T13:54:07;17.70;;;8.57;;
74967;SDS011;63523;51.880;12.630;2022-11-13T13:56:39;19.38;;;9.43;;
74967;SDS011;63523;51.880;12.630;2022-11-13T13:59:17;17.48;;;8.52;;
74967;SDS011;63523;51.880;12.630;2022-11-13T14:01:59;16.50;;;8.23;;
74967;SDS011;63523;51.880;12.630;2022-11-13T14:04:29;18.02;;;9.02;;
74967;SDS011;63523;51.880;12.630;2022-11-13T14:07:04;17.10;;;8.77;;
74967;SDS011;63523;51.880;12.630;2022-11-13T14:12:52;18.95;;;8.90;;
74967;SDS011;63523;51.880;12.630;2022-11-13T14:15:37;19.13;;;8.70;;
74967;SDS011;63523;51.880;12.630;2022-11-13T14:18:33;17.83;;;8.93;;
74967;SDS011;63523;51.880;12.630;2022-11-13T14:21:22;18.83;;;8.90;;
74967;SDS011;63523;51.880;12.630;2022-11-13T14:23:56;17.38;;;7.82;;
74967;SDS011;63523;51.880;12.630;2022-11-13T14:26:27;17.23;;;8.40;;
74967;SDS011;63523;51.880;12.630;2022-11-13T14:32:29;19.63;;;8.80;;
74967;SDS011;63523;51.880;12.630;2022-11-13T14:35:26;24.47;;;8.70;;
74967;SDS011;63523;51.880;12.630;2022-11-13T14:38:16;20.35;;;9.27;;
74967;SDS011;63523;51.880;12.630;2022-11-13T14:40:51;18.40;;;8.43;;
74967;SDS011;63523;51.880;12.630;2022-11-13T14:43:32;19.05;;;8.32;;
74967;SDS011;63523;51.880;12.630;2022-11-13T14:46:02;18.15;;;8.18;;
74967;SDS011;63523;51.880;12.630;2022-11-13T14:48:50;17.57;;;8.10;;
74967;SDS011;63523;51.880;12.630;2022-11-13T14:51:22;17.58;;;8.05;;
74967;SDS011;63523;51.880;12.630;2022-11-13T14:53:58;16.90;;;8.38;;
74967;SDS011;63523;51.880;12.630;2022-11-13T14:56:33;17.90;;;8.65;;
74967;SDS011;63523;51.880;12.630;2022-11-13T14:59:10;13.95;;;7.35;;
74967;SDS011;63523;51.880;12.630;2022-11-13T15:01:40;15.53;;;7.60;;
74967;SDS011;63523;51.880;12.630;2022-11-13T15:04:25;14.57;;;7.65;;
74967;SDS011;63523;51.880;12.630;2022-11-13T15:07:31;16.48;;;7.25;;
74967;SDS011;63523;51.880;12.630;2022-11-13T15:09:53;18.27;;;8.48;;
74967;SDS011;63523;51.880;12.630;2022-11-13T15:12:25;18.00;;;8.88;;
74967;SDS011;63523;51.880;12.630;2022-11-13T15:14:53;20.33;;;10.30;;
74967;SDS011;63523;51.880;12.630;2022-11-13T15:17:22;19.10;;;9.35;;
74967;SDS011;63523;51.880;12.630;2022-11-13T15:20:09;21.20;;;10.88;;
74967;SDS011;63523;51.880;12.630;2022-11-13T15:22:49;20.73;;;10.38;;
74967;SDS011;63523;51.880;12.630;2022-11-13T15:25:38;19.87;;;10.97;;
74967;SDS011;63523;51.880;12.630;2022-11-13T15:28:09;23.83;;;9.70;;
74967;SDS011;63523;51.880;12.630;2022-11-13T15:30:51;19.75;;;9.40;;
74967;SDS011;63523;51.880;12.630;2022-11-13T15:33:20;20.15;;;9.75;;
74967;SDS011;63523;51.880;12.630;2022-11-13T15:35:46;21.08;;;10.35;;
74967;SDS011;63523;51.880;12.630;2022-11-13T15:38:15;23.47;;;12.43;;
74967;SDS011;63523;51.880;12.630;2022-11-13T15:40:43;26.80;;;10.88;;
74967;SDS011;63523;51.880;12.630;2022-11-13T15:43:14;20.65;;;9.60;;
74967;SDS011;63523;51.880;12.630;2022-11-13T15:45:45;20.23;;;8.57;;
74967;SDS011;63523;51.880;12.630;2022-11-13T15:48:11;20.27;;;9.23;;
74967;SDS011;63523;51.880;12.630;2022-11-13T15:50:37;26.13;;;11.40;;
74967;SDS011;63523;51.880;12.630;2022-11-13T15:53:04;28.40;;;13.73;;
74967;SDS011;63523;51.880;12.630;2022-11-13T15:55:34;24.50;;;12.32;;
74967;SDS011;63523;51.880;12.630;2022-11-13T15:58:03;21.33;;;8.97;;
74967;SDS011;63523;51.880;12.630;2022-11-13T16:00:29;22.55;;;10.02;;
74967;SDS011;63523;51.880;12.630;2022-11-13T16:02:58;22.23;;;10.23;;
74967;SDS011;63523;51.880;12.630;2022-11-13T16:05:31;20.77;;;10.32;;
74967;SDS011;63523;51.880;12.630;2022-11-13T16:10:57;22.10;;;10.02;;
74967;SDS011;63523;51.880;12.630;2022-11-13T16:13:34;21.85;;;9.82;;
74967;SDS011;63523;51.880;12.630;2022-11-13T16:16:13;23.55;;;10.32;;
74967;SDS011;63523;51.880;12.630;2022-11-13T16:18:45;23.38;;;10.75;;
74967;SDS011;63523;51.880;12.630;2022-11-13T16:21:17;25.33;;;10.33;;
74967;SDS011;63523;51.880;12.630;2022-11-13T16:23:46;23.20;;;10.27;;
74967;SDS011;63523;51.880;12.630;2022-11-13T16:26:33;24.52;;;10.50;;
74967;SDS011;63523;51.880;12.630;2022-11-13T16:28:58;23.65;;;10.63;;
74967;SDS011;63523;51.880;12.630;2022-11-13T16:31:41;24.25;;;10.90;;
74967;SDS011;63523;51.880;12.630;2022-11-13T16:34:16;24.43;;;10.57;;
74967;SDS011;63523;51.880;12.630;2022-11-13T16:36:45;26.38;;;11.48;;
74967;SDS011;63523;51.880;12.630;2022-11-13T16:39:13;25.90;;;10.77;;
74967;SDS011;63523;51.880;12.630;2022-11-13T16:41:52;24.25;;;10.90;;